sensor_id;sensor_type;location;lat;lon;timestamp;pressure;altitude;pressure_sealevel;temperature;humidity
23229;BME280;11783;50.350;6.576;2023-06-22T00:00:58;96485.72;;;21.62;70.16
23229;BME280;11783;50.350;6.576;2023-06-22T00:03:26;96490.94;;;21.59;70.79
23229;BME280;11783;50.350;6.576;2023-06-22T00:05:52;96504.34;;;21.64;70.05
23229;BME280;11783;50.350;6.576;2023-06-22T00:08:18;96498.44;;;21.62;70.21
23229;BME280;11783;50.350;6.576;2023-06-22T00:10:45;96501.47;;;21.60;70.18
23229;BME280;11783;50.350;6.576;2023-06-22T00:13:11;96503.69;;;21.58;70.04
23229;BME280;11783;50.350;6.576;2023-06-22T00:15:39;96505.56;;;21.58;70.33
23229;BME280;11783;50.350;6.576;2023-06-22T00:18:06;96502.34;;;21.56;70.38
23229;BME280;11783;50.350;6.576;2023-06-22T00:20:31;96492.47;;;21.51;70.56
23229;BME280;11783;50.350;6.576;2023-06-22T00:22:58;96499.38;;;21.57;70.18
23229;BME280;11783;50.350;6.576;2023-06-22T00:25:25;96495.84;;;21.57;70.07
23229;BME280;11783;50.350;6.576;2023-06-22T00:27:50;96498.06;;;21.55;69.78
23229;BME280;11783;50.350;6.576;2023-06-22T00:30:16;96496.16;;;21.55;70.16
23229;BME280;11783;50.350;6.576;2023-06-22T00:32:45;96495.75;;;21.62;70.23
23229;BME280;11783;50.350;6.576;2023-06-22T00:35:12;96495.75;;;21.62;70.33
23229;BME280;11783;50.350;6.576;2023-06-22T00:37:38;96495.56;;;21.58;70.35
23229;BME280;11783;50.350;6.576;2023-06-22T00:40:08;96494.44;;;21.59;71.07
23229;BME280;11783;50.350;6.576;2023-06-22T00:42:36;96487.44;;;21.58;71.69
23229;BME280;11783;50.350;6.576;2023-06-22T00:45:02;96482.84;;;21.59;72.00
23229;BME280;11783;50.350;6.576;2023-06-22T00:47:27;96484.53;;;21.55;72.47
23229;BME280;11783;50.350;6.576;2023-06-22T00:49:53;96477.66;;;21.49;72.21
23229;BME280;11783;50.350;6.576;2023-06-22T00:52:21;96471.75;;;21.46;73.71
23229;BME280;11783;50.350;6.576;2023-06-22T00:54:51;96475.00;;;21.35;72.91
23229;BME280;11783;50.350;6.576;2023-06-22T00:57:18;96468.91;;;21.29;73.68
23229;BME280;11783;50.350;6.576;2023-06-22T00:59:45;96468.59;;;21.31;73.45
23229;BME280;11783;50.350;6.576;2023-06-22T01:02:13;96464.78;;;21.32;73.32
23229;BME280;11783;50.350;6.576;2023-06-22T01:04:39;96462.28;;;21.35;73.17
23229;BME280;11783;50.350;6.576;2023-06-22T01:10:16;96464.31;;;21.30;74.39
23229;BME280;11783;50.350;6.576;2023-06-22T01:12:52;96469.09;;;21.33;73.97
23229;BME280;11783;50.350;6.576;2023-06-22T01:15:25;96462.53;;;21.25;72.88
23229;BME280;11783;50.350;6.576;2023-06-22T01:17:53;96476.22;;;21.29;73.42
23229;BME280;11783;50.350;6.576;2023-06-22T01:20:21;96468.81;;;21.21;73.35
23229;BME280;11783;50.350;6.576;2023-06-22T01:23:10;96467.81;;;21.16;74.60
23229;BME280;11783;50.350;6.576;2023-06-22T01:26:16;96464.22;;;21.21;74.03
23229;BME280;11783;50.350;6.576;2023-06-22T01:28:53;96467.31;;;21.14;73.65
23229;BME280;11783;50.350;6.576;2023-06-22T01:31:25;96463.81;;;21.14;75.04
23229;BME280;11783;50.350;6.576;2023-06-22T01:33:54;96466.03;;;21.12;75.21
23229;BME280;11783;50.350;6.576;2023-06-22T01:36:21;96468.91;;;21.15;76.31
23229;BME280;11783;50.350;6.576;2023-06-22T01:38:48;96465.59;;;21.18;76.29
23229;BME280;11783;50.350;6.576;2023-06-22T01:41:14;96470.19;;;21.18;75.42
23229;BME280;11783;50.350;6.576;2023-06-22T01:43:41;96472.59;;;21.20;76.58
23229;BME280;11783;50.350;6.576;2023-06-22T01:46:08;96488.75;;;21.11;76.43
23229;BME280;11783;50.350;6.576;2023-06-22T01:48:34;96480.34;;;21.12;78.46
23229;BME280;11783;50.350;6.576;2023-06-22T01:50:59;96487.94;;;21.10;77.45
23229;BME280;11783;50.350;6.576;2023-06-22T01:53:25;96485.75;;;21.12;79.43
23229;BME280;11783;50.350;6.576;2023-06-22T01:55:51;96487.75;;;21.07;79.28
23229;BME280;11783;50.350;6.576;2023-06-22T01:58:17;96495.19;;;21.01;81.32
23229;BME280;11783;50.350;6.576;2023-06-22T02:00:58;96493.91;;;20.85;81.15
23229;BME280;11783;50.350;6.576;2023-06-22T02:03:35;96493.91;;;20.85;82.57
23229;BME280;11783;50.350;6.576;2023-06-22T02:06:16;96487.22;;;20.69;81.84
23229;BME280;11783;50.350;6.576;2023-06-22T02:08:48;96483.72;;;20.68;84.03
23229;BME280;11783;50.350;6.576;2023-06-22T02:11:18;96471.41;;;20.62;83.68
23229;BME280;11783;50.350;6.576;2023-06-22T02:13:45;96457.22;;;20.56;84.35
23229;BME280;11783;50.350;6.576;2023-06-22T02:16:12;96454.19;;;20.58;84.97
23229;BME280;11783;50.350;6.576;2023-06-22T02:18:38;96453.59;;;20.61;84.16
23229;BME280;11783;50.350;6.576;2023-06-22T02:21:06;96464.31;;;20.52;89.36
23229;BME280;11783;50.350;6.576;2023-06-22T02:23:31;96472.81;;;20.46;85.49
23229;BME280;11783;50.350;6.576;2023-06-22T02:26:00;96469.59;;;20.58;85.17
23229;BME280;11783;50.350;6.576;2023-06-22T02:28:27;96460.41;;;20.59;85.68
23229;BME280;11783;50.350;6.576;2023-06-22T02:30:52;96457.00;;;20.53;84.43
23229;BME280;11783;50.350;6.576;2023-06-22T02:33:18;96449.22;;;20.65;84.33
23229;BME280;11783;50.350;6.576;2023-06-22T02:35:43;96462.19;;;20.77;84.68
23229;BME280;11783;50.350;6.576;2023-06-22T02:38:12;96450.59;;;20.76;85.37
23229;BME280;11783;50.350;6.576;2023-06-22T02:40:38;96435.97;;;20.77;85.94
23229;BME280;11783;50.350;6.576;2023-06-22T02:43:04;96417.59;;;20.66;85.56
23229;BME280;11783;50.350;6.576;2023-06-22T02:45:29;96403.31;;;20.65;85.78
23229;BME280;11783;50.350;6.576;2023-06-22T02:47:55;96379.09;;;20.60;85.36
23229;BME280;11783;50.350;6.576;2023-06-22T02:50:21;96371.78;;;20.61;85.44
23229;BME280;11783;50.350;6.576;2023-06-22T02:52:46;96365.19;;;20.67;84.47
23229;BME280;11783;50.350;6.576;2023-06-22T02:55:11;96358.69;;;20.68;86.05
23229;BME280;11783;50.350;6.576;2023-06-22T02:57:37;96349.00;;;20.67;84.74
23229;BME280;11783;50.350;6.576;2023-06-22T03:00:03;96354.47;;;20.62;84.26
23229;BME280;11783;50.350;6.576;2023-06-22T03:02:46;96345.34;;;20.49;84.48
23229;BME280;11783;50.350;6.576;2023-06-22T03:05:13;96351.81;;;20.34;84.43
23229;BME280;11783;50.350;6.576;2023-06-22T03:07:42;96347.81;;;20.32;84.73
23229;BME280;11783;50.350;6.576;2023-06-22T03:10:09;96355.31;;;20.35;84.39
23229;BME280;11783;50.350;6.576;2023-06-22T03:12:35;96357.41;;;20.38;84.38
23229;BME280;11783;50.350;6.576;2023-06-22T03:15:01;96353.25;;;20.45;84.53
23229;BME280;11783;50.350;6.576;2023-06-22T03:17:26;96357.63;;;20.41;84.00
23229;BME280;11783;50.350;6.576;2023-06-22T03:19:52;96359.78;;;20.39;84.34
23229;BME280;11783;50.350;6.576;2023-06-22T03:22:17;96363.72;;;20.47;85.13
23229;BME280;11783;50.350;6.576;2023-06-22T03:24:43;96363.72;;;20.47;83.69
23229;BME280;11783;50.350;6.576;2023-06-22T03:27:08;96361.13;;;20.42;83.76
23229;BME280;11783;50.350;6.576;2023-06-22T03:29:33;96359.22;;;20.42;83.96
23229;BME280;11783;50.350;6.576;2023-06-22T03:31:59;96354.91;;;20.41;84.33
23229;BME280;11783;50.350;6.576;2023-06-22T03:34:24;96347.09;;;20.40;84.33
23229;BME280;11783;50.350;6.576;2023-06-22T03:36:50;96354.13;;;20.41;83.73
23229;BME280;11783;50.350;6.576;2023-06-22T03:39:16;96344.13;;;20.41;83.25
23229;BME280;11783;50.350;6.576;2023-06-22T03:41:41;96341.44;;;20.41;83.17
23229;BME280;11783;50.350;6.576;2023-06-22T03:44:06;96339.31;;;20.38;83.01
23229;BME280;11783;50.350;6.576;2023-06-22T03:46:35;96336.59;;;20.38;83.62
23229;BME280;11783;50.350;6.576;2023-06-22T03:49:01;96332.31;;;20.37;83.50
23229;BME280;11783;50.350;6.576;2023-06-22T03:51:28;96332.13;;;20.34;82.68
23229;BME280;11783;50.350;6.576;2023-06-22T03:53:53;96343.22;;;20.32;83.06
23229;BME280;11783;50.350;6.576;2023-06-22T03:56:19;96341.03;;;20.34;83.53
23229;BME280;11783;50.350;6.576;2023-06-22T03:58:46;96343.22;;;20.32;83.62
23229;BME280;11783;50.350;6.576;2023-06-22T04:01:11;96340.53;;;20.32;82.81
23229;BME280;11783;50.350;6.576;2023-06-22T04:03:37;96352.13;;;20.33;83.54
23229;BME280;11783;50.350;6.576;2023-06-22T04:06:03;96344.41;;;20.26;83.28
23229;BME280;11783;50.350;6.576;2023-06-22T04:08:29;96350.59;;;20.26;83.41
23229;BME280;11783;50.350;6.576;2023-06-22T04:10:55;96339.53;;;20.28;82.85
23229;BME280;11783;50.350;6.576;2023-06-22T04:13:20;96352.22;;;20.27;83.20
23229;BME280;11783;50.350;6.576;2023-06-22T04:15:46;96353.13;;;20.23;83.48
23229;BME280;11783;50.350;6.576;2023-06-22T04:18:11;96358.50;;;20.23;83.48
23229;BME280;11783;50.350;6.576;2023-06-22T04:20:38;96357.81;;;20.17;83.74
23229;BME280;11783;50.350;6.576;2023-06-22T04:23:04;96354.34;;;20.17;83.43
23229;BME280;11783;50.350;6.576;2023-06-22T04:25:29;96363.03;;;20.14;84.03
23229;BME280;11783;50.350;6.576;2023-06-22T04:27:54;96361.94;;;20.15;84.01
23229;BME280;11783;50.350;6.576;2023-06-22T04:30:20;96366.81;;;20.13;84.52
23229;BME280;11783;50.350;6.576;2023-06-22T04:32:45;96366.03;;;20.12;84.64
23229;BME280;11783;50.350;6.576;2023-06-22T04:35:21;96361.75;;;20.11;85.25
23229;BME280;11783;50.350;6.576;2023-06-22T04:37:47;96360.53;;;20.04;85.16
23229;BME280;11783;50.350;6.576;2023-06-22T04:40:15;96355.13;;;20.04;85.66
23229;BME280;11783;50.350;6.576;2023-06-22T04:42:40;96353.41;;;20.08;85.59
23229;BME280;11783;50.350;6.576;2023-06-22T04:45:08;96342.44;;;20.04;84.74
23229;BME280;11783;50.350;6.576;2023-06-22T04:47:34;96348.63;;;20.05;84.65
23229;BME280;11783;50.350;6.576;2023-06-22T04:50:03;96346.53;;;20.02;84.97
23229;BME280;11783;50.350;6.576;2023-06-22T04:52:31;96344.34;;;20.04;85.62
23229;BME280;11783;50.350;6.576;2023-06-22T04:54:56;96338.44;;;20.02;85.11
23229;BME280;11783;50.350;6.576;2023-06-22T04:57:22;96339.25;;;20.02;85.20
23229;BME280;11783;50.350;6.576;2023-06-22T04:59:55;96342.25;;;20.01;85.36
23229;BME280;11783;50.350;6.576;2023-06-22T05:02:21;96343.84;;;20.02;87.33
23229;BME280;11783;50.350;6.576;2023-06-22T05:04:47;96337.75;;;19.96;86.31
23229;BME280;11783;50.350;6.576;2023-06-22T05:07:16;96342.66;;;19.94;87.23
23229;BME280;11783;50.350;6.576;2023-06-22T05:09:41;96342.34;;;19.95;86.63
23229;BME280;11783;50.350;6.576;2023-06-22T05:12:07;96342.34;;;19.95;87.83
23229;BME280;11783;50.350;6.576;2023-06-22T05:14:33;96337.75;;;19.96;87.15
23229;BME280;11783;50.350;6.576;2023-06-22T05:16:58;96336.84;;;20.01;87.93
23229;BME280;11783;50.350;6.576;2023-06-22T05:19:24;96334.44;;;19.99;87.81
23229;BME280;11783;50.350;6.576;2023-06-22T05:21:50;96334.25;;;19.95;87.21
23229;BME280;11783;50.350;6.576;2023-06-22T05:24:15;96341.06;;;19.93;87.82
23229;BME280;11783;50.350;6.576;2023-06-22T05:26:41;96339.94;;;19.94;88.42
23229;BME280;11783;50.350;6.576;2023-06-22T05:29:06;96341.25;;;19.96;88.56
23229;BME280;11783;50.350;6.576;2023-06-22T05:31:32;96337.25;;;19.94;87.62
23229;BME280;11783;50.350;6.576;2023-06-22T05:33:57;96341.25;;;19.96;88.19
23229;BME280;11783;50.350;6.576;2023-06-22T05:36:23;96350.34;;;20.01;88.95
23229;BME280;11783;50.350;6.576;2023-06-22T05:38:52;96345.84;;;19.96;89.56
23229;BME280;11783;50.350;6.576;2023-06-22T05:41:17;96339.34;;;19.97;89.90
23229;BME280;11783;50.350;6.576;2023-06-22T05:43:43;96342.72;;;20.03;90.50
23229;BME280;11783;50.350;6.576;2023-06-22T05:46:08;96347.75;;;20.09;90.35
23229;BME280;11783;50.350;6.576;2023-06-22T05:48:34;96352.84;;;20.11;90.61
23229;BME280;11783;50.350;6.576;2023-06-22T05:50:59;96367.31;;;20.15;90.88
23229;BME280;11783;50.350;6.576;2023-06-22T05:53:25;96365.00;;;20.22;92.21
23229;BME280;11783;50.350;6.576;2023-06-22T05:55:50;96378.81;;;20.20;90.69
23229;BME280;11783;50.350;6.576;2023-06-22T05:58:16;96379.50;;;20.26;92.01
23229;BME280;11783;50.350;6.576;2023-06-22T06:00:41;96384.91;;;20.26;90.67
23229;BME280;11783;50.350;6.576;2023-06-22T06:03:08;96391.00;;;20.32;92.47
23229;BME280;11783;50.350;6.576;2023-06-22T06:05:34;96383.41;;;20.34;92.19
23229;BME280;11783;50.350;6.576;2023-06-22T06:08:04;96386.78;;;20.39;92.90
23229;BME280;11783;50.350;6.576;2023-06-22T06:10:30;96387.59;;;20.40;91.60
23229;BME280;11783;50.350;6.576;2023-06-22T06:12:56;96390.22;;;20.45;92.34
23229;BME280;11783;50.350;6.576;2023-06-22T06:15:22;96381.53;;;20.48;93.91
23229;BME280;11783;50.350;6.576;2023-06-22T06:17:51;96369.31;;;20.50;93.12
23229;BME280;11783;50.350;6.576;2023-06-22T06:20:22;96365.22;;;20.53;96.23
23229;BME280;11783;50.350;6.576;2023-06-22T06:22:49;96362.22;;;20.54;94.57
23229;BME280;11783;50.350;6.576;2023-06-22T06:25:15;96354.59;;;20.56;94.47
23229;BME280;11783;50.350;6.576;2023-06-22T06:27:46;96369.56;;;20.63;94.58
23229;BME280;11783;50.350;6.576;2023-06-22T06:30:13;96363.59;;;20.66;95.42
23229;BME280;11783;50.350;6.576;2023-06-22T06:32:39;96360.28;;;20.69;94.73
23229;BME280;11783;50.350;6.576;2023-06-22T06:35:12;96350.97;;;20.75;94.44
23229;BME280;11783;50.350;6.576;2023-06-22T06:37:45;96344.94;;;20.78;95.08
23229;BME280;11783;50.350;6.576;2023-06-22T06:40:12;96337.81;;;20.82;94.37
23229;BME280;11783;50.350;6.576;2023-06-22T06:42:39;96328.19;;;20.90;95.60
23229;BME280;11783;50.350;6.576;2023-06-22T06:45:27;96338.09;;;20.94;97.33
23229;BME280;11783;50.350;6.576;2023-06-22T06:47:53;96343.34;;;20.99;96.66
23229;BME280;11783;50.350;6.576;2023-06-22T06:50:19;96340.88;;;21.03;97.97
23229;BME280;11783;50.350;6.576;2023-06-22T06:52:45;96336.13;;;21.08;97.18
23229;BME280;11783;50.350;6.576;2023-06-22T06:55:10;96332.50;;;21.13;95.36
23229;BME280;11783;50.350;6.576;2023-06-22T06:57:38;96323.94;;;21.20;94.10
23229;BME280;11783;50.350;6.576;2023-06-22T07:00:07;96321.66;;;21.27;94.49
23229;BME280;11783;50.350;6.576;2023-06-22T07:02:42;96319.78;;;21.36;95.63
23229;BME280;11783;50.350;6.576;2023-06-22T07:05:09;96300.88;;;21.36;94.33
23229;BME280;11783;50.350;6.576;2023-06-22T07:07:34;96313.16;;;21.42;93.98
23229;BME280;11783;50.350;6.576;2023-06-22T07:10:00;96307.63;;;21.47;94.37
23229;BME280;11783;50.350;6.576;2023-06-22T07:12:25;96310.34;;;21.56;91.44
23229;BME280;11783;50.350;6.576;2023-06-22T07:14:52;96301.66;;;21.67;94.68
23229;BME280;11783;50.350;6.576;2023-06-22T07:17:17;96303.91;;;21.74;94.69
23229;BME280;11783;50.350;6.576;2023-06-22T07:19:43;96302.84;;;21.84;95.86
23229;BME280;11783;50.350;6.576;2023-06-22T07:22:08;96299.50;;;21.87;91.94
23229;BME280;11783;50.350;6.576;2023-06-22T07:24:33;96295.53;;;21.93;90.92
23229;BME280;11783;50.350;6.576;2023-06-22T07:26:59;96290.81;;;21.98;94.53
23229;BME280;11783;50.350;6.576;2023-06-22T07:29:25;96297.97;;;22.03;92.76
23229;BME280;11783;50.350;6.576;2023-06-22T07:31:52;96301.34;;;22.09;90.65
23229;BME280;11783;50.350;6.576;2023-06-22T07:34:18;96284.19;;;22.22;95.36
23229;BME280;11783;50.350;6.576;2023-06-22T07:36:44;96281.47;;;22.30;94.64
23229;BME280;11783;50.350;6.576;2023-06-22T07:39:10;96266.38;;;22.38;98.78
23229;BME280;11783;50.350;6.576;2023-06-22T07:41:36;96262.88;;;22.46;100.00
23229;BME280;11783;50.350;6.576;2023-06-22T07:44:02;96248.84;;;22.44;94.25
23229;BME280;11783;50.350;6.576;2023-06-22T07:46:29;96258.59;;;22.54;94.60
23229;BME280;11783;50.350;6.576;2023-06-22T07:48:56;96247.09;;;22.65;98.27
23229;BME280;11783;50.350;6.576;2023-06-22T07:51:21;96245.34;;;22.78;98.70
23229;BME280;11783;50.350;6.576;2023-06-22T07:53:47;96235.47;;;22.91;97.14
23229;BME280;11783;50.350;6.576;2023-06-22T07:56:13;96236.38;;;23.04;100.00
23229;BME280;11783;50.350;6.576;2023-06-22T07:58:39;96225.41;;;23.09;98.09
23229;BME280;11783;50.350;6.576;2023-06-22T08:01:04;96218.19;;;23.13;99.38
23229;BME280;11783;50.350;6.576;2023-06-22T08:03:31;96229.97;;;23.25;100.00
23229;BME280;11783;50.350;6.576;2023-06-22T08:05:57;96217.97;;;23.35;100.00
23229;BME280;11783;50.350;6.576;2023-06-22T08:08:22;96211.06;;;23.46;99.19
23229;BME280;11783;50.350;6.576;2023-06-22T08:10:48;96209.59;;;23.58;97.04
23229;BME280;11783;50.350;6.576;2023-06-22T08:13:13;96210.22;;;23.63;94.49
23229;BME280;11783;50.350;6.576;2023-06-22T08:15:39;96197.41;;;23.72;93.47
23229;BME280;11783;50.350;6.576;2023-06-22T08:18:04;96190.47;;;23.83;97.38
23229;BME280;11783;50.350;6.576;2023-06-22T08:20:30;96183.06;;;23.93;94.68
23229;BME280;11783;50.350;6.576;2023-06-22T08:22:56;96191.00;;;23.98;97.02
23229;BME280;11783;50.350;6.576;2023-06-22T08:25:23;96199.56;;;24.08;98.03
23229;BME280;11783;50.350;6.576;2023-06-22T08:27:48;96193.75;;;24.19;93.04
23229;BME280;11783;50.350;6.576;2023-06-22T08:30:15;96182.03;;;24.27;93.86
23229;BME280;11783;50.350;6.576;2023-06-22T08:32:41;96186.16;;;24.33;93.71
23229;BME280;11783;50.350;6.576;2023-06-22T08:35:07;96186.34;;;24.49;95.42
23229;BME280;11783;50.350;6.576;2023-06-22T08:37:34;96178.31;;;24.52;92.14
23229;BME280;11783;50.350;6.576;2023-06-22T08:40:01;96165.16;;;24.42;88.23
23229;BME280;11783;50.350;6.576;2023-06-22T08:42:29;96155.00;;;24.51;92.88
23229;BME280;11783;50.350;6.576;2023-06-22T08:44:55;96157.47;;;24.44;89.12
23229;BME280;11783;50.350;6.576;2023-06-22T08:47:20;96160.56;;;24.55;90.49
23229;BME280;11783;50.350;6.576;2023-06-22T08:49:46;96144.91;;;24.52;88.81
23229;BME280;11783;50.350;6.576;2023-06-22T08:52:12;96149.81;;;24.58;91.79
23229;BME280;11783;50.350;6.576;2023-06-22T08:54:38;96141.47;;;24.63;89.40
23229;BME280;11783;50.350;6.576;2023-06-22T08:57:03;96140.44;;;24.68;91.80
23229;BME280;11783;50.350;6.576;2023-06-22T08:59:29;96143.78;;;24.73;90.23
23229;BME280;11783;50.350;6.576;2023-06-22T09:01:54;96149.09;;;24.82;88.21
23229;BME280;11783;50.350;6.576;2023-06-22T09:04:20;96147.41;;;24.90;87.98
23229;BME280;11783;50.350;6.576;2023-06-22T09:06:48;96146.06;;;24.96;88.81
23229;BME280;11783;50.350;6.576;2023-06-22T09:09:16;96148.09;;;24.87;85.31
23229;BME280;11783;50.350;6.576;2023-06-22T09:11:41;96162.91;;;24.89;88.03
23229;BME280;11783;50.350;6.576;2023-06-22T09:14:07;96183.53;;;24.90;87.49
23229;BME280;11783;50.350;6.576;2023-06-22T09:16:32;96182.28;;;24.88;86.61
23229;BME280;11783;50.350;6.576;2023-06-22T09:18:58;96191.13;;;24.85;86.06
23229;BME280;11783;50.350;6.576;2023-06-22T09:21:23;96190.31;;;24.84;86.43
23229;BME280;11783;50.350;6.576;2023-06-22T09:23:49;96196.09;;;24.83;86.06
23229;BME280;11783;50.350;6.576;2023-06-22T09:26:20;96206.19;;;24.82;84.67
23229;BME280;11783;50.350;6.576;2023-06-22T09:28:46;96216.25;;;24.82;85.23
23229;BME280;11783;50.350;6.576;2023-06-22T09:31:12;96231.19;;;24.75;84.66
23229;BME280;11783;50.350;6.576;2023-06-22T09:33:37;96241.06;;;24.80;85.04
23229;BME280;11783;50.350;6.576;2023-06-22T09:36:05;96259.00;;;24.72;82.71
23229;BME280;11783;50.350;6.576;2023-06-22T09:38:37;96249.94;;;24.68;83.14
23229;BME280;11783;50.350;6.576;2023-06-22T09:41:03;96247.78;;;24.62;83.46
23229;BME280;11783;50.350;6.576;2023-06-22T09:43:30;96240.63;;;24.57;84.11
23229;BME280;11783;50.350;6.576;2023-06-22T09:45:56;96248.16;;;24.52;83.83
23229;BME280;11783;50.350;6.576;2023-06-22T09:48:22;96259.69;;;24.49;83.47
23229;BME280;11783;50.350;6.576;2023-06-22T09:50:47;96287.19;;;24.47;85.66
23229;BME280;11783;50.350;6.576;2023-06-22T09:53:13;96298.94;;;24.39;86.83
23229;BME280;11783;50.350;6.576;2023-06-22T09:55:38;96325.84;;;24.23;87.62
23229;BME280;11783;50.350;6.576;2023-06-22T09:58:03;96361.00;;;24.20;88.37
23229;BME280;11783;50.350;6.576;2023-06-22T10:00:29;96350.63;;;24.13;87.79
23229;BME280;11783;50.350;6.576;2023-06-22T10:02:54;96298.00;;;23.97;88.44
23229;BME280;11783;50.350;6.576;2023-06-22T10:05:21;96294.50;;;23.96;89.66
23229;BME280;11783;50.350;6.576;2023-06-22T10:07:47;96297.06;;;23.93;90.10
23229;BME280;11783;50.350;6.576;2023-06-22T10:10:13;96289.38;;;23.95;89.80
23229;BME280;11783;50.350;6.576;2023-06-22T10:12:42;96277.34;;;23.75;89.32
23229;BME280;11783;50.350;6.576;2023-06-22T10:15:08;96261.06;;;23.75;91.58
23229;BME280;11783;50.350;6.576;2023-06-22T10:17:34;96271.59;;;23.76;92.49
23229;BME280;11783;50.350;6.576;2023-06-22T10:20:00;96273.03;;;23.74;93.31
23229;BME280;11783;50.350;6.576;2023-06-22T10:22:26;96283.75;;;23.70;91.01
23229;BME280;11783;50.350;6.576;2023-06-22T10:24:51;96286.16;;;23.72;93.16
23229;BME280;11783;50.350;6.576;2023-06-22T10:27:17;96290.19;;;23.66;91.25
23229;BME280;11783;50.350;6.576;2023-06-22T10:29:43;96287.47;;;23.66;91.60
23229;BME280;11783;50.350;6.576;2023-06-22T10:32:09;96274.22;;;23.64;92.44
23229;BME280;11783;50.350;6.576;2023-06-22T10:34:34;96255.38;;;23.68;92.53
23229;BME280;11783;50.350;6.576;2023-06-22T10:37:00;96229.22;;;23.63;93.15
23229;BME280;11783;50.350;6.576;2023-06-22T10:39:25;96209.72;;;23.61;94.11
23229;BME280;11783;50.350;6.576;2023-06-22T10:41:50;96168.91;;;23.58;96.15
23229;BME280;11783;50.350;6.576;2023-06-22T10:44:16;96160.91;;;23.23;97.38
23229;BME280;11783;50.350;6.576;2023-06-22T10:46:42;96140.72;;;23.12;97.79
23229;BME280;11783;50.350;6.576;2023-06-22T10:49:08;96145.63;;;23.18;97.19
23229;BME280;11783;50.350;6.576;2023-06-22T10:51:33;96151.47;;;23.29;98.51
23229;BME280;11783;50.350;6.576;2023-06-22T10:53:59;96162.28;;;23.38;95.71
23229;BME280;11783;50.350;6.576;2023-06-22T10:56:24;96165.75;;;23.47;99.70
23229;BME280;11783;50.350;6.576;2023-06-22T10:58:49;96160.75;;;23.58;100.00
23229;BME280;11783;50.350;6.576;2023-06-22T11:01:15;96160.41;;;23.68;100.00
23229;BME280;11783;50.350;6.576;2023-06-22T11:03:40;96148.97;;;23.83;100.00
23229;BME280;11783;50.350;6.576;2023-06-22T11:06:06;96144.06;;;23.97;99.70
23229;BME280;11783;50.350;6.576;2023-06-22T11:08:31;96132.16;;;24.10;100.00
23229;BME280;11783;50.350;6.576;2023-06-22T11:10:56;96126.13;;;24.26;100.00
23229;BME280;11783;50.350;6.576;2023-06-22T11:13:22;96115.53;;;24.33;100.00
23229;BME280;11783;50.350;6.576;2023-06-22T11:15:47;96112.41;;;24.43;100.00
23229;BME280;11783;50.350;6.576;2023-06-22T11:18:13;96113.44;;;24.51;100.00
23229;BME280;11783;50.350;6.576;2023-06-22T11:20:38;96116.03;;;24.47;98.73
23229;BME280;11783;50.350;6.576;2023-06-22T11:23:07;96112.19;;;24.48;98.77
23229;BME280;11783;50.350;6.576;2023-06-22T11:25:33;96111.97;;;24.41;100.00
23229;BME280;11783;50.350;6.576;2023-06-22T11:28:04;96101.84;;;24.62;100.00
23229;BME280;11783;50.350;6.576;2023-06-22T11:30:30;96099.78;;;24.71;100.00
23229;BME280;11783;50.350;6.576;2023-06-22T11:32:56;96100.41;;;24.77;98.64
23229;BME280;11783;50.350;6.576;2023-06-22T11:35:22;96076.28;;;24.88;96.00
23229;BME280;11783;50.350;6.576;2023-06-22T11:37:48;96078.78;;;24.93;98.28
23229;BME280;11783;50.350;6.576;2023-06-22T11:40:13;96067.69;;;24.98;97.36
23229;BME280;11783;50.350;6.576;2023-06-22T11:42:39;96067.81;;;25.01;94.47
23229;BME280;11783;50.350;6.576;2023-06-22T11:45:06;96062.59;;;25.09;97.26
23229;BME280;11783;50.350;6.576;2023-06-22T11:47:32;96066.13;;;25.21;99.46
23229;BME280;11783;50.350;6.576;2023-06-22T11:49:57;96060.78;;;25.25;98.65
23229;BME280;11783;50.350;6.576;2023-06-22T11:52:22;96058.66;;;25.30;95.50
23229;BME280;11783;50.350;6.576;2023-06-22T11:54:48;96067.38;;;25.36;96.69
23229;BME280;11783;50.350;6.576;2023-06-22T11:57:13;96059.22;;;25.36;90.55
23229;BME280;11783;50.350;6.576;2023-06-22T11:59:39;96061.59;;;25.38;96.01
23229;BME280;11783;50.350;6.576;2023-06-22T12:02:05;96050.44;;;25.55;97.31
23229;BME280;11783;50.350;6.576;2023-06-22T12:04:32;96034.69;;;25.73;100.00
23229;BME280;11783;50.350;6.576;2023-06-22T12:06:58;96028.06;;;25.86;94.68
23229;BME280;11783;50.350;6.576;2023-06-22T12:09:24;96026.28;;;26.06;92.29
23229;BME280;11783;50.350;6.576;2023-06-22T12:11:49;96001.91;;;26.25;96.03
23229;BME280;11783;50.350;6.576;2023-06-22T12:14:14;95999.63;;;26.27;99.15
23229;BME280;11783;50.350;6.576;2023-06-22T12:16:40;96003.63;;;26.45;95.15
23229;BME280;11783;50.350;6.576;2023-06-22T12:19:05;96005.09;;;26.59;94.86
23229;BME280;11783;50.350;6.576;2023-06-22T12:21:31;96004.41;;;26.77;92.46
23229;BME280;11783;50.350;6.576;2023-06-22T12:23:56;95999.31;;;26.76;85.10
23229;BME280;11783;50.350;6.576;2023-06-22T12:26:21;95998.69;;;26.82;88.38
23229;BME280;11783;50.350;6.576;2023-06-22T12:28:47;96002.09;;;26.95;90.88
23229;BME280;11783;50.350;6.576;2023-06-22T12:31:14;95998.00;;;27.01;83.10
23229;BME280;11783;50.350;6.576;2023-06-22T12:33:39;96000.59;;;27.13;85.78
23229;BME280;11783;50.350;6.576;2023-06-22T12:36:05;96003.34;;;27.13;82.73
23229;BME280;11783;50.350;6.576;2023-06-22T12:38:30;95999.34;;;27.27;83.38
23229;BME280;11783;50.350;6.576;2023-06-22T12:40:56;96003.28;;;27.45;82.15
23229;BME280;11783;50.350;6.576;2023-06-22T12:43:21;96009.75;;;27.56;78.73
23229;BME280;11783;50.350;6.576;2023-06-22T12:45:46;95998.22;;;27.63;79.86
23229;BME280;11783;50.350;6.576;2023-06-22T12:48:12;96001.22;;;27.58;80.98
23229;BME280;11783;50.350;6.576;2023-06-22T12:50:38;95994.03;;;27.69;78.59
23229;BME280;11783;50.350;6.576;2023-06-22T12:53:03;96003.19;;;27.77;78.31
23229;BME280;11783;50.350;6.576;2023-06-22T12:55:29;96006.06;;;27.84;76.24
23229;BME280;11783;50.350;6.576;2023-06-22T12:57:55;96006.91;;;27.68;77.02
23229;BME280;11783;50.350;6.576;2023-06-22T13:00:20;96005.50;;;27.74;76.29